sensor_id;sensor_type;location;lat;lon;timestamp;pressure;altitude;pressure_sealevel;temperature;humidity
56944;BME280;42848;42.524;12.052;2023-02-04T00:01:55;97431.22;;;6.63;100.00
56944;BME280;42848;42.524;12.052;2023-02-04T00:04:20;97425.25;;;6.66;100.00
56944;BME280;42848;42.524;12.052;2023-02-04T00:06:46;97420.56;;;6.32;100.00
56944;BME280;42848;42.524;12.052;2023-02-04T00:09:12;97412.47;;;6.32;100.00
56944;BME280;42848;42.524;12.052;2023-02-04T00:11:38;97412.72;;;6.41;100.00
56944;BME280;42848;42.524;12.052;2023-02-04T00:14:03;97421.53;;;6.56;100.00
56944;BME280;42848;42.524;12.052;2023-02-04T00:16:29;97416.44;;;6.50;100.00
56944;BME280;42848;42.524;12.052;2023-02-04T00:18:55;97403.81;;;6.35;100.00
56944;BME280;42848;42.524;12.052;2023-02-04T00:21:20;97396.25;;;6.42;100.00
56944;BME280;42848;42.524;12.052;2023-02-04T00:23:46;97395.13;;;6.48;100.00
56944;BME280;42848;42.524;12.052;2023-02-04T00:26:11;97392.44;;;6.48;100.00
56944;BME280;42848;42.524;12.052;2023-02-04T00:28:37;97379.94;;;6.68;100.00
56944;BME280;42848;42.524;12.052;2023-02-04T00:31:03;97375.72;;;6.51;100.00
56944;BME280;42848;42.524;12.052;2023-02-04T00:33:29;97381.09;;;6.51;100.00
56944;BME280;42848;42.524;12.052;2023-02-04T00:35:54;97382.66;;;6.63;100.00
56944;BME280;42848;42.524;12.052;2023-02-04T00:38:20;97377.31;;;6.52;100.00
56944;BME280;42848;42.524;12.052;2023-02-04T00:40:47;97374.63;;;6.47;100.00
56944;BME280;42848;42.524;12.052;2023-02-04T00:43:13;97378.69;;;6.50;100.00
56944;BME280;42848;42.524;12.052;2023-02-04T00:45:38;97374.31;;;6.59;100.00
56944;BME280;42848;42.524;12.052;2023-02-04T00:48:04;97363.22;;;6.66;100.00
56944;BME280;42848;42.524;12.052;2023-02-04T00:50:30;97362.94;;;6.13;100.00
56944;BME280;42848;42.524;12.052;2023-02-04T00:52:55;97360.63;;;6.45;100.00
56944;BME280;42848;42.524;12.052;2023-02-04T00:55:23;97365.44;;;6.53;100.00
56944;BME280;42848;42.524;12.052;2023-02-04T00:57:49;97371.41;;;6.50;100.00
56944;BME280;42848;42.524;12.052;2023-02-04T01:00:16;97374.63;;;6.52;100.00
56944;BME280;42848;42.524;12.052;2023-02-04T01:02:42;97381.06;;;6.62;100.00
56944;BME280;42848;42.524;12.052;2023-02-04T01:05:08;97376.16;;;6.69;100.00
56944;BME280;42848;42.524;12.052;2023-02-04T01:07:35;97371.31;;;6.66;100.00
56944;BME280;42848;42.524;12.052;2023-02-04T01:10:01;97376.09;;;6.79;100.00
56944;BME280;42848;42.524;12.052;2023-02-04T01:12:26;97372.50;;;6.49;100.00
56944;BME280;42848;42.524;12.052;2023-02-04T01:14:53;97368.94;;;6.54;100.00
56944;BME280;42848;42.524;12.052;2023-02-04T01:17:20;97350.84;;;6.60;100.00
56944;BME280;42848;42.524;12.052;2023-02-04T01:19:46;97351.31;;;6.67;100.00
56944;BME280;42848;42.524;12.052;2023-02-04T01:22:12;97357.28;;;6.64;100.00
56944;BME280;42848;42.524;12.052;2023-02-04T01:24:38;97348.28;;;6.34;100.00
56944;BME280;42848;42.524;12.052;2023-02-04T01:27:04;97342.66;;;6.75;100.00
56944;BME280;42848;42.524;12.052;2023-02-04T01:29:29;97329.88;;;6.46;100.00
56944;BME280;42848;42.524;12.052;2023-02-04T01:31:55;97325.69;;;6.20;100.00
56944;BME280;42848;42.524;12.052;2023-02-04T01:34:21;97330.44;;;6.38;100.00
56944;BME280;42848;42.524;12.052;2023-02-04T01:36:46;97324.41;;;6.56;100.00
56944;BME280;42848;42.524;12.052;2023-02-04T01:39:12;97318.44;;;6.65;100.00
56944;BME280;42848;42.524;12.052;2023-02-04T01:41:38;97322.38;;;6.38;100.00
56944;BME280;42848;42.524;12.052;2023-02-04T01:44:04;97318.41;;;6.25;100.00
56944;BME280;42848;42.524;12.052;2023-02-04T01:46:31;97321.84;;;6.41;100.00
56944;BME280;42848;42.524;12.052;2023-02-04T01:49:00;97313.75;;;6.36;100.00
56944;BME280;42848;42.524;12.052;2023-02-04T01:51:27;97312.75;;;6.22;100.00
56944;BME280;42848;42.524;12.052;2023-02-04T01:53:55;97311.41;;;6.19;100.00
56944;BME280;42848;42.524;12.052;2023-02-04T01:56:22;97305.16;;;6.34;100.00
56944;BME280;42848;42.524;12.052;2023-02-04T01:58:51;97309.69;;;6.39;100.00
56944;BME280;42848;42.524;12.052;2023-02-04T02:01:41;97313.81;;;6.26;100.00
56944;BME280;42848;42.524;12.052;2023-02-04T02:04:16;97316.50;;;6.26;100.00
56944;BME280;42848;42.524;12.052;2023-02-04T02:06:52;97316.28;;;6.12;100.00
56944;BME280;42848;42.524;12.052;2023-02-04T02:09:20;97309.97;;;6.37;100.00
56944;BME280;42848;42.524;12.052;2023-02-04T02:11:46;97291.69;;;6.29;100.00
56944;BME280;42848;42.524;12.052;2023-02-04T02:14:12;97286.25;;;6.34;100.00
56944;BME280;42848;42.524;12.052;2023-02-04T02:16:38;97281.41;;;6.36;100.00
56944;BME280;42848;42.524;12.052;2023-02-04T02:19:06;97278.19;;;6.34;100.00
56944;BME280;42848;42.524;12.052;2023-02-04T02:22:07;97283.28;;;6.41;100.00
56944;BME280;42848;42.524;12.052;2023-02-04T02:24:34;97283.41;;;6.60;100.00
56944;BME280;42848;42.524;12.052;2023-02-04T02:27:03;97276.44;;;6.53;100.00
56944;BME280;42848;42.524;12.052;2023-02-04T02:29:29;97268.25;;;6.69;100.00
56944;BME280;42848;42.524;12.052;2023-02-04T02:31:55;97274.00;;;6.13;100.00
56944;BME280;42848;42.524;12.052;2023-02-04T02:34:23;97276.56;;;6.33;100.00
56944;BME280;42848;42.524;12.052;2023-02-04T02:36:50;97281.47;;;6.26;100.00
56944;BME280;42848;42.524;12.052;2023-02-04T02:39:16;97278.09;;;6.49;100.00
56944;BME280;42848;42.524;12.052;2023-02-04T02:41:42;97280.97;;;6.58;100.00
56944;BME280;42848;42.524;12.052;2023-02-04T02:44:09;97271.69;;;6.35;100.00
56944;BME280;42848;42.524;12.052;2023-02-04T02:46:35;97269.81;;;6.36;100.00
56944;BME280;42848;42.524;12.052;2023-02-04T02:49:01;97269.00;;;6.35;100.00
56944;BME280;42848;42.524;12.052;2023-02-04T02:51:27;97275.44;;;6.39;100.00
56944;BME280;42848;42.524;12.052;2023-02-04T02:53:53;97272.41;;;6.51;100.00
56944;BME280;42848;42.524;12.052;2023-02-04T02:56:19;97272.56;;;6.70;100.00
56944;BME280;42848;42.524;12.052;2023-02-04T02:58:45;97264.47;;;6.65;100.00
56944;BME280;42848;42.524;12.052;2023-02-04T03:01:11;97267.03;;;6.51;100.00
56944;BME280;42848;42.524;12.052;2023-02-04T03:03:49;97264.56;;;6.54;100.00
56944;BME280;42848;42.524;12.052;2023-02-04T03:06:22;97269.38;;;6.63;100.00
56944;BME280;42848;42.524;12.052;2023-02-04T03:08:50;97277.47;;;6.57;100.00
56944;BME280;42848;42.524;12.052;2023-02-04T03:11:19;97264.53;;;6.60;100.00
56944;BME280;42848;42.524;12.052;2023-02-04T03:13:45;97258.84;;;6.22;100.00
56944;BME280;42848;42.524;12.052;2023-02-04T03:16:11;97258.22;;;6.35;100.00
56944;BME280;42848;42.524;12.052;2023-02-04T03:18:38;97253.91;;;6.34;100.00
56944;BME280;42848;42.524;12.052;2023-02-04T03:21:04;97252.81;;;6.35;100.00
56944;BME280;42848;42.524;12.052;2023-02-04T03:23:35;97249.56;;;6.38;100.00
56944;BME280;42848;42.524;12.052;2023-02-04T03:26:02;97247.56;;;6.59;100.00
56944;BME280;42848;42.524;12.052;2023-02-04T03:28:28;97251.56;;;6.62;100.00
56944;BME280;42848;42.524;12.052;2023-02-04T03:30:55;97251.00;;;6.65;100.00
56944;BME280;42848;42.524;12.052;2023-02-04T03:33:26;97241.53;;;6.67;100.00
56944;BME280;42848;42.524;12.052;2023-02-04T03:35:56;97222.19;;;6.60;100.00
56944;BME280;42848;42.524;12.052;2023-02-04T03:38:22;97221.91;;;6.56;100.00
56944;BME280;42848;42.524;12.052;2023-02-04T03:40:48;97219.78;;;6.53;100.00
56944;BME280;42848;42.524;12.052;2023-02-04T03:43:13;97207.44;;;6.47;100.00
56944;BME280;42848;42.524;12.052;2023-02-04T03:45:39;97194.50;;;6.49;100.00
56944;BME280;42848;42.524;12.052;2023-02-04T03:48:05;97203.50;;;6.35;100.00
56944;BME280;42848;42.524;12.052;2023-02-04T03:50:31;97193.84;;;6.57;100.00
56944;BME280;42848;42.524;12.052;2023-02-04T03:52:56;97191.75;;;6.54;100.00
56944;BME280;42848;42.524;12.052;2023-02-04T03:55:22;97185.84;;;6.47;100.00
56944;BME280;42848;42.524;12.052;2023-02-04T03:57:48;97184.72;;;6.59;100.00
56944;BME280;42848;42.524;12.052;2023-02-04T04:00:14;97192.06;;;6.48;100.00
56944;BME280;42848;42.524;12.052;2023-02-04T04:02:40;97185.84;;;6.47;100.00
56944;BME280;42848;42.524;12.052;2023-02-04T04:05:06;97183.22;;;6.42;100.00
56944;BME280;42848;42.524;12.052;2023-02-04T04:07:32;97178.84;;;6.46;100.00
56944;BME280;42848;42.524;12.052;2023-02-04T04:09:58;97181.03;;;6.44;100.00
56944;BME280;42848;42.524;12.052;2023-02-04T04:12:24;97180.63;;;6.27;100.00
56944;BME280;42848;42.524;12.052;2023-02-04T04:14:49;97168.38;;;6.40;100.00
56944;BME280;42848;42.524;12.052;2023-02-04T04:17:15;97170.81;;;6.41;100.00
56944;BME280;42848;42.524;12.052;2023-02-04T04:19:41;97172.44;;;6.42;100.00
56944;BME280;42848;42.524;12.052;2023-02-04T04:22:08;97160.78;;;6.47;100.00
56944;BME280;42848;42.524;12.052;2023-02-04T04:24:34;97155.91;;;6.49;100.00
56944;BME280;42848;42.524;12.052;2023-02-04T04:26:59;97149.16;;;6.51;100.00
56944;BME280;42848;42.524;12.052;2023-02-04T04:29:25;97154.59;;;6.46;100.00
56944;BME280;42848;42.524;12.052;2023-02-04T04:31:51;97159.94;;;6.51;100.00
56944;BME280;42848;42.524;12.052;2023-02-04T04:34:16;97152.78;;;6.37;100.00
56944;BME280;42848;42.524;12.052;2023-02-04T04:36:42;97149.34;;;6.26;100.00
56944;BME280;42848;42.524;12.052;2023-02-04T04:39:08;97148.75;;;6.34;100.00
56944;BME280;42848;42.524;12.052;2023-02-04T04:41:34;97148.03;;;6.23;100.00
56944;BME280;42848;42.524;12.052;2023-02-04T04:43:59;97139.09;;;6.28;100.00
56944;BME280;42848;42.524;12.052;2023-02-04T04:46:25;97149.84;;;6.33;100.00
56944;BME280;42848;42.524;12.052;2023-02-04T04:48:51;97153.88;;;6.36;100.00
56944;BME280;42848;42.524;12.052;2023-02-04T04:51:17;97162.19;;;6.39;100.00
56944;BME280;42848;42.524;12.052;2023-02-04T04:53:42;97150.19;;;6.55;100.00
56944;BME280;42848;42.524;12.052;2023-02-04T04:56:08;97142.97;;;6.17;100.00
56944;BME280;42848;42.524;12.052;2023-02-04T04:58:34;97140.69;;;6.29;100.00
56944;BME280;42848;42.524;12.052;2023-02-04T05:00:59;97144.94;;;6.06;100.00
56944;BME280;42848;42.524;12.052;2023-02-04T05:03:25;97140.78;;;6.19;100.00
56944;BME280;42848;42.524;12.052;2023-02-04T05:05:51;97133.78;;;6.18;100.00
56944;BME280;42848;42.524;12.052;2023-02-04T05:08:17;97126.28;;;6.10;100.00
56944;BME280;42848;42.524;12.052;2023-02-04T05:10:45;97129.38;;;6.32;100.00
56944;BME280;42848;42.524;12.052;2023-02-04T05:13:11;97134.84;;;6.22;100.00
56944;BME280;42848;42.524;12.052;2023-02-04T05:15:37;97144.06;;;6.11;100.00
56944;BME280;42848;42.524;12.052;2023-02-04T05:18:03;97166.56;;;5.91;100.00
56944;BME280;42848;42.524;12.052;2023-02-04T05:20:29;97144.63;;;6.13;100.00
56944;BME280;42848;42.524;12.052;2023-02-04T05:22:55;97141.28;;;6.26;100.00
56944;BME280;42848;42.524;12.052;2023-02-04T05:25:21;97141.38;;;6.11;100.00
56944;BME280;42848;42.524;12.052;2023-02-04T05:27:48;97148.13;;;6.13;100.00
56944;BME280;42848;42.524;12.052;2023-02-04T05:30:14;97161.34;;;6.10;100.00
56944;BME280;42848;42.524;12.052;2023-02-04T05:32:40;97146.66;;;6.26;100.00
56944;BME280;42848;42.524;12.052;2023-02-04T05:35:06;97148.56;;;6.25;100.00
56944;BME280;42848;42.524;12.052;2023-02-04T05:37:32;97148.84;;;6.24;100.00
56944;BME280;42848;42.524;12.052;2023-02-04T05:39:57;97150.66;;;5.94;100.00
56944;BME280;42848;42.524;12.052;2023-02-04T05:42:23;97162.34;;;6.19;100.00
56944;BME280;42848;42.524;12.052;2023-02-04T05:44:49;97166.22;;;6.03;100.00
56944;BME280;42848;42.524;12.052;2023-02-04T05:47:14;97165.69;;;6.06;100.00
56944;BME280;42848;42.524;12.052;2023-02-04T05:49:40;97173.19;;;6.09;100.00
56944;BME280;42848;42.524;12.052;2023-02-04T05:52:07;97168.91;;;6.08;100.00
56944;BME280;42848;42.524;12.052;2023-02-04T05:54:32;97151.56;;;6.19;100.00
56944;BME280;42848;42.524;12.052;2023-02-04T05:56:58;97145.13;;;6.15;100.00
56944;BME280;42848;42.524;12.052;2023-02-04T05:59:24;97143.56;;;6.09;100.00
56944;BME280;42848;42.524;12.052;2023-02-04T06:01:50;97135.38;;;6.24;100.00
56944;BME280;42848;42.524;12.052;2023-02-04T06:04:15;97141.25;;;6.31;100.00
56944;BME280;42848;42.524;12.052;2023-02-04T06:06:42;97144.03;;;6.16;100.00
56944;BME280;42848;42.524;12.052;2023-02-04T06:09:09;97137.94;;;6.00;100.00
56944;BME280;42848;42.524;12.052;2023-02-04T06:11:35;97125.25;;;6.06;100.00
56944;BME280;42848;42.524;12.052;2023-02-04T06:14:00;97132.63;;;5.95;100.00
56944;BME280;42848;42.524;12.052;2023-02-04T06:16:26;97136.84;;;6.06;100.00
56944;BME280;42848;42.524;12.052;2023-02-04T06:18:52;97126.88;;;6.07;100.00
56944;BME280;42848;42.524;12.052;2023-02-04T06:21:17;97136.84;;;6.06;100.00
56944;BME280;42848;42.524;12.052;2023-02-04T06:23:43;97118.66;;;6.22;100.00
56944;BME280;42848;42.524;12.052;2023-02-04T06:26:09;97123.06;;;6.13;100.00
56944;BME280;42848;42.524;12.052;2023-02-04T06:28:34;97126.41;;;6.28;100.00
56944;BME280;42848;42.524;12.052;2023-02-04T06:31:00;97133.34;;;6.06;100.00
56944;BME280;42848;42.524;12.052;2023-02-04T06:33:26;97117.13;;;6.11;100.00
56944;BME280;42848;42.524;12.052;2023-02-04T06:35:51;97116.81;;;5.73;100.00
56944;BME280;42848;42.524;12.052;2023-02-04T06:38:17;97119.72;;;5.82;100.00
56944;BME280;42848;42.524;12.052;2023-02-04T06:40:44;97119.69;;;5.92;100.00
56944;BME280;42848;42.524;12.052;2023-02-04T06:43:14;97120.59;;;6.16;100.00
56944;BME280;42848;42.524;12.052;2023-02-04T06:45:40;97143.38;;;5.90;100.00
56944;BME280;42848;42.524;12.052;2023-02-04T06:48:06;97121.50;;;6.02;100.00
56944;BME280;42848;42.524;12.052;2023-02-04T06:50:31;97117.47;;;6.04;100.00
56944;BME280;42848;42.524;12.052;2023-02-04T06:52:57;97136.38;;;5.89;100.00
56944;BME280;42848;42.524;12.052;2023-02-04T06:55:23;97125.75;;;6.13;100.00
56944;BME280;42848;42.524;12.052;2023-02-04T06:57:48;97131.19;;;6.03;100.00
56944;BME280;42848;42.524;12.052;2023-02-04T07:00:14;97131.13;;;6.13;100.00
56944;BME280;42848;42.524;12.052;2023-02-04T07:02:40;97134.69;;;6.03;100.00
56944;BME280;42848;42.524;12.052;2023-02-04T07:05:07;97128.06;;;6.24;100.00
56944;BME280;42848;42.524;12.052;2023-02-04T07:07:33;97120.06;;;6.14;100.00
56944;BME280;42848;42.524;12.052;2023-02-04T07:09:59;97123.47;;;5.86;100.00
56944;BME280;42848;42.524;12.052;2023-02-04T07:12:25;97117.38;;;6.14;100.00
56944;BME280;42848;42.524;12.052;2023-02-04T07:14:51;97114.63;;;6.19;100.00
56944;BME280;42848;42.524;12.052;2023-02-04T07:17:17;97130.06;;;6.14;100.00
56944;BME280;42848;42.524;12.052;2023-02-04T07:19:42;97123.78;;;6.23;100.00
56944;BME280;42848;42.524;12.052;2023-02-04T07:22:08;97128.31;;;6.28;100.00
56944;BME280;42848;42.524;12.052;2023-02-04T07:24:34;97115.19;;;6.50;100.00
56944;BME280;42848;42.524;12.052;2023-02-04T07:26:59;97116.78;;;6.51;100.00
56944;BME280;42848;42.524;12.052;2023-02-04T07:29:25;97114.13;;;6.46;100.00
56944;BME280;42848;42.524;12.052;2023-02-04T07:31:51;97113.03;;;6.47;100.00
56944;BME280;42848;42.524;12.052;2023-02-04T07:34:17;97107.13;;;6.45;100.00
56944;BME280;42848;42.524;12.052;2023-02-04T07:36:42;97109.78;;;6.50;100.00
56944;BME280;42848;42.524;12.052;2023-02-04T07:39:08;97105.91;;;6.62;100.00
56944;BME280;42848;42.524;12.052;2023-02-04T07:41:34;97098.50;;;6.72;100.00
56944;BME280;42848;42.524;12.052;2023-02-04T07:44:01;97115.47;;;6.78;100.00
56944;BME280;42848;42.524;12.052;2023-02-04T07:46:27;97112.69;;;6.83;100.00
56944;BME280;42848;42.524;12.052;2023-02-04T07:48:52;97117.28;;;6.82;100.00
56944;BME280;42848;42.524;12.052;2023-02-04T07:51:18;97126.03;;;6.98;100.00
56944;BME280;42848;42.524;12.052;2023-02-04T07:53:44;97129.56;;;6.94;100.00
56944;BME280;42848;42.524;12.052;2023-02-04T07:56:09;97129.03;;;6.97;100.00
56944;BME280;42848;42.524;12.052;2023-02-04T07:58:35;97123.22;;;7.08;100.00
56944;BME280;42848;42.524;12.052;2023-02-04T08:01:01;97128.09;;;7.06;100.00
56944;BME280;42848;42.524;12.052;2023-02-04T08:03:27;97124.19;;;7.18;100.00
56944;BME280;42848;42.524;12.052;2023-02-04T08:05:53;97135.91;;;7.32;100.00
56944;BME280;42848;42.524;12.052;2023-02-04T08:08:19;97147.28;;;7.29;100.00
56944;BME280;42848;42.524;12.052;2023-02-04T08:10:45;97136.47;;;7.29;100.00
56944;BME280;42848;42.524;12.052;2023-02-04T08:13:11;97124.06;;;7.28;100.00
56944;BME280;42848;42.524;12.052;2023-02-04T08:15:36;97131.88;;;7.53;100.00
56944;BME280;42848;42.524;12.052;2023-02-04T08:18:03;97142.22;;;7.46;100.00
56944;BME280;42848;42.524;12.052;2023-02-04T08:20:28;97138.41;;;7.47;100.00
56944;BME280;42848;42.524;12.052;2023-02-04T08:22:55;97137.47;;;7.57;100.00
56944;BME280;42848;42.524;12.052;2023-02-04T08:25:21;97144.50;;;7.58;100.00
56944;BME280;42848;42.524;12.052;2023-02-04T08:27:46;97125.81;;;7.61;100.00
56944;BME280;42848;42.524;12.052;2023-02-04T08:30:12;97132.19;;;7.70;100.00
56944;BME280;42848;42.524;12.052;2023-02-04T08:32:38;97130.13;;;7.62;100.00
56944;BME280;42848;42.524;12.052;2023-02-04T08:35:04;97131.28;;;7.56;100.00
56944;BME280;42848;42.524;12.052;2023-02-04T08:37:30;97134.63;;;7.48;100.00
56944;BME280;42848;42.524;12.052;2023-02-04T08:39:56;97143.78;;;7.52;100.00
56944;BME280;42848;42.524;12.052;2023-02-04T08:42:22;97145.06;;;7.55;100.00
56944;BME280;42848;42.524;12.052;2023-02-04T08:44:47;97140.34;;;7.65;100.00
56944;BME280;42848;42.524;12.052;2023-02-04T08:47:13;97141.94;;;7.66;100.00
56944;BME280;42848;42.524;12.052;2023-02-04T08:49:39;97135.47;;;7.86;100.00
56944;BME280;42848;42.524;12.052;2023-02-04T08:52:05;97146.66;;;7.80;100.00
56944;BME280;42848;42.524;12.052;2023-02-04T08:54:33;97154.16;;;7.83;100.00
56944;BME280;42848;42.524;12.052;2023-02-04T08:56:59;97146.28;;;7.86;100.00
56944;BME280;42848;42.524;12.052;2023-02-04T08:59:25;97152.78;;;7.85;100.00
56944;BME280;42848;42.524;12.052;2023-02-04T09:01:51;97159.50;;;7.88;100.00
56944;BME280;42848;42.524;12.052;2023-02-04T09:04:21;97152.50;;;7.87;100.00
56944;BME280;42848;42.524;12.052;2023-02-04T09:06:48;97154.31;;;7.91;100.00
56944;BME280;42848;42.524;12.052;2023-02-04T09:09:14;97157.22;;;7.95;100.00
56944;BME280;42848;42.524;12.052;2023-02-04T09:11:40;97150.75;;;7.96;100.00
56944;BME280;42848;42.524;12.052;2023-02-04T09:14:06;97157.81;;;7.92;100.00
56944;BME280;42848;42.524;12.052;2023-02-04T09:16:31;97160.53;;;7.92;100.00
56944;BME280;42848;42.524;12.052;2023-02-04T09:18:58;97156.72;;;7.93;100.00
56944;BME280;42848;42.524;12.052;2023-02-04T09:21:25;97153.38;;;8.01;100.00
56944;BME280;42848;42.524;12.052;2023-02-04T09:23:50;97154.00;;;8.12;100.00
56944;BME280;42848;42.524;12.052;2023-02-04T09:26:16;97153.66;;;8.18;100.00
56944;BME280;42848;42.524;12.052;2023-02-04T09:28:42;97148.75;;;8.20;100.00
56944;BME280;42848;42.524;12.052;2023-02-04T09:31:08;97139.03;;;8.19;100.00
56944;BME280;42848;42.524;12.052;2023-02-04T09:33:35;97152.56;;;8.19;100.00
56944;BME280;42848;42.524;12.052;2023-02-04T09:36:00;97140.06;;;8.23;100.00
56944;BME280;42848;42.524;12.052;2023-02-04T09:38:26;97138.84;;;8.35;100.00
56944;BME280;42848;42.524;12.052;2023-02-04T09:41:10;97116.91;;;8.50;100.00
56944;BME280;42848;42.524;12.052;2023-02-04T09:43:42;97122.34;;;8.50;100.00
56944;BME280;42848;42.524;12.052;2023-02-04T09:46:28;97114.16;;;8.55;100.00
56944;BME280;42848;42.524;12.052;2023-02-04T09:48:57;97110.63;;;8.54;100.00
56944;BME280;42848;42.524;12.052;2023-02-04T09:51:26;97113.34;;;8.54;100.00
56944;BME280;42848;42.524;12.052;2023-02-04T09:53:54;97092.53;;;8.69;100.00
56944;BME280;42848;42.524;12.052;2023-02-04T09:56:22;97088.31;;;8.63;100.00
56944;BME280;42848;42.524;12.052;2023-02-04T09:58:49;97103.56;;;8.72;100.00
56944;BME280;42848;42.524;12.052;2023-02-04T10:01:19;97112.88;;;8.66;100.00
56944;BME280;42848;42.524;12.052;2023-02-04T10:03:47;97097.53;;;8.75;100.00
56944;BME280;42848;42.524;12.052;2023-02-04T10:06:20;97098.75;;;8.69;100.00
56944;BME280;42848;42.524;12.052;2023-02-04T10:08:47;97110.56;;;8.73;100.00
56944;BME280;42848;42.524;12.052;2023-02-04T10:11:14;97107.56;;;8.75;100.00
56944;BME280;42848;42.524;12.052;2023-02-04T10:13:44;97108.59;;;8.79;100.00
56944;BME280;42848;42.524;12.052;2023-02-04T10:16:16;97113.59;;;8.72;100.00
56944;BME280;42848;42.524;12.052;2023-02-04T10:18:42;97117.00;;;8.77;100.00
56944;BME280;42848;42.524;12.052;2023-02-04T10:21:20;97107.06;;;8.87;100.00
56944;BME280;42848;42.524;12.052;2023-02-04T10:23:49;97113.22;;;8.78;100.00
56944;BME280;42848;42.524;12.052;2023-02-04T10:26:24;97116.81;;;8.88;100.00
56944;BME280;42848;42.524;12.052;2023-02-04T10:28:57;97111.22;;;8.98;100.00
56944;BME280;42848;42.524;12.052;2023-02-04T10:31:34;97124.53;;;8.94;100.00
56944;BME280;42848;42.524;12.052;2023-02-04T10:34:22;97130.66;;;9.13;100.00
56944;BME280;42848;42.524;12.052;2023-02-04T10:36:51;97109.41;;;9.07;100.00
56944;BME280;42848;42.524;12.052;2023-02-04T10:39:19;97112.22;;;9.02;100.00
56944;BME280;42848;42.524;12.052;2023-02-04T10:44:16;97109.41;;;9.07;100.00
56944;BME280;42848;42.524;12.052;2023-02-04T10:46:42;97097.78;;;9.20;100.00
56944;BME280;42848;42.524;12.052;2023-02-04T10:49:23;97096.16;;;9.19;100.00
56944;BME280;42848;42.524;12.052;2023-02-04T10:51:50;97088.53;;;9.21;100.00
56944;BME280;42848;42.524;12.052;2023-02-04T10:54:23;97091.75;;;9.23;100.00
56944;BME280;42848;42.524;12.052;2023-02-04T10:57:16;97081.13;;;9.13;100.00
56944;BME280;42848;42.524;12.052;2023-02-04T10:59:43;97070.69;;;9.20;100.00
56944;BME280;42848;42.524;12.052;2023-02-04T11:05:31;97060.75;;;9.29;100.00
56944;BME280;42848;42.524;12.052;2023-02-04T11:07:57;97055.91;;;9.40;100.00
56944;BME280;42848;42.524;12.052;2023-02-04T11:10:32;97062.25;;;9.35;100.00
56944;BME280;42848;42.524;12.052;2023-02-04T11:13:23;97056.22;;;9.38;100.00
56944;BME280;42848;42.524;12.052;2023-02-04T11:16:05;97050.78;;;9.38;100.00
56944;BME280;42848;42.524;12.052;2023-02-04T11:18:47;97057.94;;;9.34;100.00
56944;BME280;42848;42.524;12.052;2023-02-04T11:21:24;97051.16;;;9.59;100.00
56944;BME280;42848;42.524;12.052;2023-02-04T11:26:39;97048.34;;;9.51;100.00
56944;BME280;42848;42.524;12.052;2023-02-04T11:36:34;97037.88;;;9.35;100.00
56944;BME280;42848;42.524;12.052;2023-02-04T11:39:17;97039.72;;;9.49;100.00
56944;BME280;42848;42.524;12.052;2023-02-04T11:41:45;97035.31;;;9.53;100.00
56944;BME280;42848;42.524;12.052;2023-02-04T11:44:13;97044.75;;;9.55;100.00
56944;BME280;42848;42.524;12.052;2023-02-04T11:46:40;97030.63;;;9.45;100.00
56944;BME280;42848;42.524;12.052;2023-02-04T11:49:16;97032.84;;;9.43;100.00
56944;BME280;42848;42.524;12.052;2023-02-04T11:51:42;97036.03;;;9.45;100.00
56944;BME280;42848;42.524;12.052;2023-02-04T11:54:11;97035.72;;;9.46;100.00
56944;BME280;42848;42.524;12.052;2023-02-04T11:56:39;97039.16;;;9.52;100.00
56944;BME280;42848;42.524;12.052;2023-02-04T11:59:04;97023.91;;;9.42;100.00
56944;BME280;42848;42.524;12.052;2023-02-04T12:01:32;97021.38;;;9.46;100.00
56944;BME280;42848;42.524;12.052;2023-02-04T12:04:04;97027.84;;;9.36;100.00
56944;BME280;42848;42.524;12.052;2023-02-04T12:06:35;97024.91;;;9.46;100.00
56944;BME280;42848;42.524;12.052;2023-02-04T12:11:56;97006.19;;;9.58;100.00
56944;BME280;42848;42.524;12.052;2023-02-04T12:14:31;96985.19;;;9.64;100.00
56944;BME280;42848;42.524;12.052;2023-02-04T12:16:57;96975.78;;;9.61;100.00
56944;BME280;42848;42.524;12.052;2023-02-04T12:19:23;96972.44;;;9.64;100.00
56944;BME280;42848;42.524;12.052;2023-02-04T12:21:49;96960.81;;;9.64;100.00
56944;BME280;42848;42.524;12.052;2023-02-04T12:24:14;96961.78;;;9.68;100.00
56944;BME280;42848;42.524;12.052;2023-02-04T12:26:40;96954.22;;;9.79;100.00
56944;BME280;42848;42.524;12.052;2023-02-04T12:29:06;96954.50;;;9.77;100.00
56944;BME280;42848;42.524;12.052;2023-02-04T12:31:34;96958.81;;;9.78;100.00
56944;BME280;42848;42.524;12.052;2023-02-04T12:34:00;96955.50;;;9.81;100.00
56944;BME280;42848;42.524;12.052;2023-02-04T12:36:26;96965.59;;;9.89;100.00
56944;BME280;42848;42.524;12.052;2023-02-04T12:38:52;96968.66;;;9.96;100.00
56944;BME280;42848;42.524;12.052;2023-02-04T12:41:18;96965.66;;;9.98;100.00
56944;BME280;42848;42.524;12.052;2023-02-04T12:43:44;96948.59;;;9.75;100.00
56944;BME280;42848;42.524;12.052;2023-02-04T12:46:10;96939.84;;;9.78;100.00
56944;BME280;42848;42.524;12.052;2023-02-04T12:48:36;96942.25;;;9.80;100.00
56944;BME280;42848;42.524;12.052;2023-02-04T12:51:06;96943.66;;;9.77;100.00
56944;BME280;42848;42.524;12.052;2023-02-04T12:53:32;96933.00;;;9.81;100.00
56944;BME280;42848;42.524;12.052;2023-02-04T12:55:57;96916.81;;;9.89;100.00
56944;BME280;42848;42.524;12.052;2023-02-04T12:58:23;96913.47;;;9.92;100.00
56944;BME280;42848;42.524;12.052;2023-02-04T13:00:49;96899.78;;;9.97;100.00
56944;BME280;42848;42.524;12.052;2023-02-04T13:03:14;96899.50;;;10.08;100.00
56944;BME280;42848;42.524;12.052;2023-02-04T13:05:40;96890.25;;;10.09;100.00
56944;BME280;42848;42.524;12.052;2023-02-04T13:08:06;96893.00;;;10.17;100.00
56944;BME280;42848;42.524;12.052;2023-02-04T13:10:32;96895.59;;;10.22;100.00